Time;durP1;ratioP1;P1;durP2;ratioP2;P2;SDS_P1;SDS_P2;PMS_P1;PMS_P2;Temp;Humidity;BMP_temperature;BMP_pressure;BME280_temperature;BME280_humidity;BME280_pressure;Samples;Min_cycle;Max_cycle;Signal;HPM_P1;HPM_P2
2023/04/27 00:00:00;;;;;;;8.60;4.30;;;;;;;;;;5055005;28;20101;-79
2023/04/27 00:02:28;;;;;;;9.27;4.33;;;;;;;;;;5062412;28;20028;-80
2023/04/27 00:04:54;;;;;;;13.97;4.30;;;;;;;;;;5046736;28;20053;-80
2023/04/27 00:07:21;;;;;;;7.80;4.57;;;;;;;;;;5055074;28;20025;-78
2023/04/27 00:09:54;;;;;;;10.37;4.17;;;;;;;;;;5053112;28;20047;-80
2023/04/27 00:12:20;;;;;;;13.90;5.07;;;;;;;;;;5044209;28;20017;-80
2023/04/27 00:14:48;;;;;;;16.13;5.00;;;;;;;;;;5046691;28;20131;-81
2023/04/27 00:17:14;;;;;;;10.73;5.17;;;;;;;;;;5058053;28;20300;-81
2023/04/27 00:19:40;;;;;;;11.53;4.80;;;;;;;;;;5052169;28;20039;-81
2023/04/27 00:22:06;;;;;;;18.50;5.57;;;;;;;;;;5057267;28;20040;-81
2023/04/27 00:24:33;;;;;;;13.67;6.50;;;;;;;;;;5054837;28;20033;-81
2023/04/27 00:27:03;;;;;;;12.10;5.60;;;;;;;;;;5041751;28;20032;-81
2023/04/27 00:29:29;;;;;;;11.73;5.53;;;;;;;;;;5050661;28;20025;-80
2023/04/27 00:31:56;;;;;;;13.30;5.50;;;;;;;;;;5050870;28;20037;-84
2023/04/27 00:34:22;;;;;;;11.37;5.50;;;;;;;;;;5058696;28;20048;-81
2023/04/27 00:36:48;;;;;;;11.47;5.17;;;;;;;;;;5050467;28;20016;-81
2023/04/27 00:39:16;;;;;;;11.20;5.60;;;;;;;;;;5060533;28;20018;-80
2023/04/27 00:41:48;;;;;;;11.07;4.83;;;;;;;;;;5049843;28;20055;-79
2023/04/27 00:44:21;;;;;;;10.77;4.63;;;;;;;;;;5051092;28;20041;-80
2023/04/27 00:46:47;;;;;;;9.47;4.80;;;;;;;;;;5052718;28;20272;-80
2023/04/27 00:49:13;;;;;;;10.13;4.87;;;;;;;;;;5047504;28;20045;-81
2023/04/27 00:51:42;;;;;;;11.63;5.20;;;;;;;;;;5045006;28;20024;-80
2023/04/27 00:54:11;;;;;;;8.03;4.90;;;;;;;;;;5052273;28;20036;-80
2023/04/27 00:56:37;;;;;;;10.10;4.80;;;;;;;;;;5055123;28;20025;-83
2023/04/27 00:59:08;;;;;;;15.50;6.37;;;;;;;;;;5062530;28;20056;-79
2023/04/27 01:01:34;;;;;;;11.90;5.60;;;;;;;;;;5056763;28;20032;-80
2023/04/27 01:04:00;;;;;;;10.73;5.50;;;;;;;;;;5055165;28;20133;-81
2023/04/27 01:06:28;;;;;;;13.40;5.80;;;;;;;;;;5056294;28;20064;-81
2023/04/27 01:08:54;;;;;;;11.97;4.97;;;;;;;;;;5053694;28;20030;-81
2023/04/27 01:11:21;;;;;;;9.93;5.63;;;;;;;;;;5045158;28;20036;-80
2023/04/27 01:13:47;;;;;;;13.03;5.80;;;;;;;;;;5051460;28;20033;-81
2023/04/27 01:16:13;;;;;;;10.77;5.87;;;;;;;;;;5052805;28;20041;-80
2023/04/27 01:18:39;;;;;;;11.07;5.43;;;;;;;;;;5055805;28;20039;-80
2023/04/27 01:21:06;;;;;;;18.50;5.70;;;;;;;;;;5055281;28;20045;-79
2023/04/27 01:23:32;;;;;;;12.30;5.87;;;;;;;;;;5043561;28;20079;-81
2023/04/27 01:25:58;;;;;;;12.60;5.90;;;;;;;;;;5050565;28;20033;-81
2023/04/27 01:28:24;;;;;;;12.63;5.83;;;;;;;;;;5051172;28;20055;-80
2023/04/27 01:33:26;;;;;;;13.30;6.37;;;;;;;;;;5071170;23;20067;-81
2023/04/27 01:35:52;;;;;;;16.13;6.20;;;;;;;;;;5056557;28;20034;-82
2023/04/27 01:38:18;;;;;;;11.40;5.53;;;;;;;;;;5053324;28;20044;-81
2023/04/27 01:40:44;;;;;;;12.03;5.27;;;;;;;;;;5054423;28;20040;-81
2023/04/27 01:43:10;;;;;;;10.23;5.50;;;;;;;;;;5054024;28;20023;-81
2023/04/27 01:45:36;;;;;;;10.27;5.40;;;;;;;;;;5054728;28;20282;-83
2023/04/27 01:48:02;;;;;;;10.20;6.00;;;;;;;;;;5054060;28;20140;-81
2023/04/27 01:50:29;;;;;;;14.13;5.80;;;;;;;;;;5056104;28;20026;-80
2023/04/27 01:52:55;;;;;;;12.90;6.13;;;;;;;;;;5053745;28;20029;-83
2023/04/27 01:55:21;;;;;;;11.17;5.77;;;;;;;;;;5053114;28;20266;-81
2023/04/27 01:57:47;;;;;;;14.33;6.07;;;;;;;;;;5053948;28;20029;-81
2023/04/27 02:00:16;;;;;;;13.33;6.03;;;;;;;;;;5054706;28;20048;-83
2023/04/27 02:02:42;;;;;;;14.03;6.50;;;;;;;;;;5054130;28;20029;-83
2023/04/27 02:05:08;;;;;;;12.00;5.90;;;;;;;;;;5052387;28;20099;-81
2023/04/27 02:07:35;;;;;;;14.27;6.60;;;;;;;;;;5050868;28;20028;-82
2023/04/27 02:10:01;;;;;;;15.40;7.20;;;;;;;;;;5052388;28;20033;-82
2023/04/27 02:12:27;;;;;;;12.53;6.90;;;;;;;;;;5053716;28;20037;-82
2023/04/27 02:14:53;;;;;;;10.40;5.93;;;;;;;;;;5055402;28;20047;-83
2023/04/27 02:17:19;;;;;;;15.87;6.67;;;;;;;;;;5051619;28;20053;-82
2023/04/27 02:19:52;;;;;;;13.63;6.03;;;;;;;;;;5050783;28;20032;-81
2023/04/27 02:22:18;;;;;;;12.40;6.23;;;;;;;;;;5053127;28;20040;-80
2023/04/27 02:24:45;;;;;;;13.30;6.63;;;;;;;;;;5052826;28;20029;-80
2023/04/27 02:27:14;;;;;;;20.00;6.93;;;;;;;;;;5052794;28;20053;-81
2023/04/27 03:23:25;;;;;;;23.93;8.23;;;;;;;;;;5048690;28;20037;-83
2023/04/27 03:25:52;;;;;;;19.03;8.67;;;;;;;;;;5050128;28;20029;-82
2023/04/27 03:28:18;;;;;;;15.57;8.17;;;;;;;;;;5047496;28;20017;-81
2023/04/27 03:30:45;;;;;;;14.47;7.20;;;;;;;;;;5049393;28;20097;-83
2023/04/27 03:33:11;;;;;;;17.37;8.37;;;;;;;;;;5048624;28;20033;-84
2023/04/27 03:35:37;;;;;;;15.80;7.63;;;;;;;;;;5049908;28;20033;-84
2023/04/27 03:38:03;;;;;;;19.47;8.03;;;;;;;;;;5046743;28;20045;-82
2023/04/27 03:40:29;;;;;;;14.47;7.63;;;;;;;;;;5048303;28;20029;-83
2023/04/27 03:42:55;;;;;;;15.93;8.47;;;;;;;;;;5047640;28;20033;-83
2023/04/27 03:45:21;;;;;;;17.70;8.40;;;;;;;;;;5050100;28;20044;-82
2023/04/27 03:47:48;;;;;;;13.10;7.43;;;;;;;;;;5049279;28;20033;-83
2023/04/27 03:50:16;;;;;;;19.23;9.13;;;;;;;;;;5051843;28;20025;-83
2023/04/27 03:52:42;;;;;;;29.47;8.93;;;;;;;;;;5048716;28;20328;-84
2023/04/27 03:55:08;;;;;;;18.03;8.43;;;;;;;;;;5050182;28;20131;-84
2023/04/27 03:57:34;;;;;;;18.03;8.57;;;;;;;;;;5047496;28;20098;-82
2023/04/27 04:00:01;;;;;;;18.73;7.90;;;;;;;;;;5047682;28;20033;-83
2023/04/27 04:02:27;;;;;;;16.60;8.57;;;;;;;;;;5048162;28;20042;-82
2023/04/27 04:04:53;;;;;;;15.97;8.03;;;;;;;;;;5049169;28;20298;-82
2023/04/27 04:07:19;;;;;;;15.37;8.27;;;;;;;;;;5047690;28;20053;-82
2023/04/27 04:09:45;;;;;;;16.90;7.43;;;;;;;;;;5045183;28;20025;-82
2023/04/27 04:12:11;;;;;;;22.20;9.53;;;;;;;;;;5047438;28;20034;-83
2023/04/27 04:14:38;;;;;;;19.63;9.43;;;;;;;;;;5044455;28;20037;-82
2023/04/27 04:17:04;;;;;;;18.03;9.67;;;;;;;;;;5044362;28;20284;-82
2023/04/27 04:19:30;;;;;;;18.80;9.50;;;;;;;;;;5031503;28;20271;-83
2023/04/27 04:21:56;;;;;;;20.47;9.20;;;;;;;;;;5051057;28;20296;-82
2023/04/27 04:24:22;;;;;;;20.27;10.00;;;;;;;;;;5053852;28;20284;-82
2023/04/27 04:26:51;;;;;;;17.80;8.80;;;;;;;;;;5050454;28;20311;-84
2023/04/27 04:29:18;;;;;;;17.87;8.80;;;;;;;;;;5049763;28;20264;-82
2023/04/27 04:31:44;;;;;;;18.07;8.93;;;;;;;;;;5049611;28;20298;-82
2023/04/27 04:34:15;;;;;;;22.43;9.17;;;;;;;;;;5051387;28;20556;-84
2023/04/27 04:36:41;;;;;;;17.27;9.67;;;;;;;;;;5050379;28;20275;-82
2023/04/27 04:39:07;;;;;;;19.00;8.73;;;;;;;;;;5048798;28;20280;-82
2023/04/27 04:41:33;;;;;;;21.00;10.33;;;;;;;;;;5048367;28;20272;-80
2023/04/27 04:43:59;;;;;;;17.43;9.80;;;;;;;;;;5049298;28;20350;-83
2023/04/27 04:46:25;;;;;;;21.33;9.80;;;;;;;;;;5049227;28;20356;-83
2023/04/27 04:48:55;;;;;;;21.80;10.53;;;;;;;;;;5047392;28;20276;-82
2023/04/27 04:51:21;;;;;;;20.50;9.70;;;;;;;;;;5051619;28;20287;-81
2023/04/27 04:53:47;;;;;;;19.27;8.87;;;;;;;;;;5050284;28;20287;-83
2023/04/27 04:56:13;;;;;;;23.57;10.07;;;;;;;;;;5046881;28;20349;-83
2023/04/27 04:58:40;;;;;;;20.40;9.87;;;;;;;;;;5048730;28;20276;-83
2023/04/27 05:01:06;;;;;;;24.33;11.20;;;;;;;;;;5048961;28;20765;-82
2023/04/27 05:03:32;;;;;;;22.23;9.60;;;;;;;;;;5049858;28;20355;-83
2023/04/27 05:05:58;;;;;;;23.97;10.30;;;;;;;;;;5048224;28;20279;-82
2023/04/27 05:08:24;;;;;;;21.73;10.80;;;;;;;;;;5049874;28;20276;-83
2023/04/27 05:10:54;;;;;;;25.57;10.90;;;;;;;;;;5048996;28;20314;-84
2023/04/27 05:13:20;;;;;;;21.63;10.33;;;;;;;;;;5051590;28;20375;-82
2023/04/27 05:15:47;;;;;;;21.50;9.53;;;;;;;;;;5050421;28;20264;-82
2023/04/27 05:18:13;;;;;;;21.00;9.67;;;;;;;;;;5050822;28;20272;-83
2023/04/27 05:20:39;;;;;;;22.50;11.20;;;;;;;;;;5050071;28;20303;-82
2023/04/27 05:23:05;;;;;;;21.50;10.77;;;;;;;;;;5049036;28;20272;-81
2023/04/27 05:25:40;;;;;;;25.07;11.53;;;;;;;;;;5049875;28;20295;-83
2023/04/27 05:28:12;;;;;;;29.17;10.50;;;;;;;;;;5051335;28;20041;-83
2023/04/27 05:30:38;;;;;;;31.95;11.05;;;;;;;;;;5052923;28;20351;-82
2023/04/27 05:33:04;;;;;;;28.03;11.83;;;;;;;;;;5051681;28;20042;-82
2023/04/27 05:35:34;;;;;;;19.43;10.30;;;;;;;;;;5053088;28;20025;-85
2023/04/27 05:38:03;;;;;;;23.37;11.90;;;;;;;;;;5052409;28;20275;-83
2023/04/27 05:40:29;;;;;;;22.23;11.07;;;;;;;;;;5052977;28;20029;-82
2023/04/27 05:42:58;;;;;;;19.33;10.33;;;;;;;;;;5051147;28;20287;-83
2023/04/27 05:45:24;;;;;;;22.30;11.97;;;;;;;;;;5052792;28;20029;-82
2023/04/27 05:47:50;;;;;;;21.40;11.00;;;;;;;;;;5053601;28;20014;-81
2023/04/27 05:50:17;;;;;;;19.23;10.20;;;;;;;;;;5051347;28;20030;-82
2023/04/27 05:52:43;;;;;;;20.47;10.40;;;;;;;;;;5052257;28;20136;-83
2023/04/27 05:55:09;;;;;;;24.87;11.30;;;;;;;;;;5052326;28;20060;-82
2023/04/27 05:57:35;;;;;;;19.90;11.60;;;;;;;;;;5049029;28;20041;-83
2023/04/27 06:00:06;;;;;;;22.43;11.13;;;;;;;;;;5047489;28;20041;-82
2023/04/27 06:02:41;;;;;;;22.20;11.87;;;;;;;;;;5046777;28;20033;-82
2023/04/27 06:05:07;;;;;;;18.90;12.03;;;;;;;;;;5034012;28;20026;-82
2023/04/27 06:07:33;;;;;;;21.87;9.83;;;;;;;;;;5048410;28;20032;-82
2023/04/27 06:10:07;;;;;;;24.93;12.20;;;;;;;;;;5047304;28;20036;-81
2023/04/27 06:12:33;;;;;;;19.60;10.23;;;;;;;;;;5048114;28;20342;-82
2023/04/27 06:15:02;;;;;;;24.70;10.83;;;;;;;;;;5047858;28;20041;-81
2023/04/27 06:20:38;;;;;;;21.87;11.00;;;;;;;;;;5047237;28;20020;-81
2023/04/27 06:23:04;;;;;;;21.50;11.33;;;;;;;;;;5048888;28;20029;-83
2023/04/27 06:25:30;;;;;;;17.80;9.77;;;;;;;;;;5053519;28;20048;-81
2023/04/27 06:27:59;;;;;;;18.77;9.97;;;;;;;;;;5046324;28;20040;-80
2023/04/27 06:30:25;;;;;;;25.93;10.73;;;;;;;;;;5039573;28;20099;-81
2023/04/27 06:32:51;;;;;;;17.40;10.20;;;;;;;;;;5041679;28;20037;-81
2023/04/27 06:35:20;;;;;;;18.20;10.67;;;;;;;;;;5040918;28;20135;-82
2023/04/27 06:37:46;;;;;;;16.90;9.83;;;;;;;;;;5041738;28;20036;-82
2023/04/27 06:40:12;;;;;;;18.30;9.70;;;;;;;;;;5040976;28;20037;-82
2023/04/27 06:42:38;;;;;;;21.87;10.30;;;;;;;;;;5042923;28;20029;-82
2023/04/27 06:45:06;;;;;;;18.17;9.70;;;;;;;;;;5042939;28;20064;-82
2023/04/27 06:47:32;;;;;;;25.30;10.07;;;;;;;;;;5025432;28;20040;-81
2023/04/27 06:49:58;;;;;;;22.50;10.40;;;;;;;;;;5046747;28;20210;-82
2023/04/27 06:52:24;;;;;;;19.00;10.33;;;;;;;;;;5045060;28;20056;-81
2023/04/27 06:54:50;;;;;;;19.73;10.63;;;;;;;;;;5045650;28;20025;-83
2023/04/27 06:57:16;;;;;;;21.03;10.93;;;;;;;;;;5044319;28;20039;-82
2023/04/27 06:59:42;;;;;;;28.07;11.87;;;;;;;;;;5042752;28;20040;-82
2023/04/27 07:02:08;;;;;;;19.60;10.67;;;;;;;;;;5043191;28;20029;-82
2023/04/27 07:04:36;;;;;;;19.57;11.00;;;;;;;;;;5045260;28;20041;-82
2023/04/27 07:07:02;;;;;;;15.47;9.60;;;;;;;;;;5042133;28;20029;-82
2023/04/27 07:09:29;;;;;;;20.90;9.60;;;;;;;;;;5046423;28;20029;-82
2023/04/27 07:11:57;;;;;;;21.67;10.87;;;;;;;;;;5046171;28;20024;-81
2023/04/27 07:14:23;;;;;;;17.97;9.43;;;;;;;;;;5044503;28;20034;-82
2023/04/27 07:16:50;;;;;;;19.43;10.03;;;;;;;;;;5041147;28;20466;-82
2023/04/27 07:19:16;;;;;;;20.70;10.77;;;;;;;;;;5051070;28;20017;-81
2023/04/27 07:21:42;;;;;;;21.60;10.63;;;;;;;;;;5045721;28;20029;-82
2023/04/27 07:24:11;;;;;;;17.33;10.13;;;;;;;;;;5046822;28;20113;-84
2023/04/27 07:26:37;;;;;;;30.53;13.73;;;;;;;;;;5050514;28;20048;-80
2023/04/27 07:29:03;;;;;;;18.70;9.70;;;;;;;;;;5057467;28;20048;-81
2023/04/27 07:31:30;;;;;;;18.47;9.70;;;;;;;;;;5053186;28;20036;-82
2023/04/27 07:33:56;;;;;;;21.23;10.20;;;;;;;;;;5053105;28;20028;-81
2023/04/27 07:36:23;;;;;;;18.47;10.67;;;;;;;;;;5053344;28;20048;-84
2023/04/27 07:38:49;;;;;;;23.90;8.83;;;;;;;;;;5052432;28;20049;-82
2023/04/27 07:41:15;;;;;;;20.43;9.47;;;;;;;;;;5055300;28;20075;-82
2023/04/27 07:43:42;;;;;;;29.90;12.07;;;;;;;;;;5055533;28;20024;-83
2023/04/27 07:46:08;;;;;;;21.37;10.87;;;;;;;;;;5056405;28;20021;-81
2023/04/27 07:48:34;;;;;;;23.40;10.97;;;;;;;;;;5050919;28;20034;-80
2023/04/27 07:51:00;;;;;;;22.67;10.83;;;;;;;;;;5054689;28;20093;-80
2023/04/27 07:53:29;;;;;;;26.20;11.57;;;;;;;;;;5054339;28;20028;-81
2023/04/27 07:55:55;;;;;;;18.17;10.30;;;;;;;;;;5055531;28;20014;-81
2023/04/27 07:58:21;;;;;;;20.07;11.90;;;;;;;;;;5055119;28;20037;-81
2023/04/27 08:00:47;;;;;;;23.83;11.13;;;;;;;;;;5053249;28;20056;-80
2023/04/27 08:03:13;;;;;;;20.50;11.10;;;;;;;;;;5053433;28;20077;-79
2023/04/27 08:05:39;;;;;;;18.50;10.80;;;;;;;;;;5055544;28;20033;-81
2023/04/27 08:08:05;;;;;;;19.83;10.70;;;;;;;;;;5053058;28;20037;-79
2023/04/27 08:10:31;;;;;;;17.67;9.30;;;;;;;;;;5054291;28;20089;-81
2023/04/27 08:12:57;;;;;;;18.80;10.97;;;;;;;;;;5055101;28;20013;-81
2023/04/27 08:15:23;;;;;;;28.43;15.33;;;;;;;;;;5055242;28;20057;-81
2023/04/27 08:17:49;;;;;;;19.40;9.93;;;;;;;;;;5051996;28;20044;-82
2023/04/27 08:20:15;;;;;;;18.70;10.90;;;;;;;;;;5054140;28;20042;-82
2023/04/27 08:22:42;;;;;;;19.10;9.87;;;;;;;;;;5055904;28;20542;-80
2023/04/27 08:25:08;;;;;;;18.60;10.50;;;;;;;;;;5055133;28;20046;-80
2023/04/27 08:27:41;;;;;;;14.37;9.07;;;;;;;;;;5055266;28;20041;-81
2023/04/27 08:30:07;;;;;;;34.67;11.60;;;;;;;;;;5051045;28;20126;-80
2023/04/27 08:32:33;;;;;;;21.27;9.73;;;;;;;;;;5053486;28;20033;-80
2023/04/27 08:34:59;;;;;;;24.10;10.37;;;;;;;;;;5051768;28;20063;-80
2023/04/27 08:37:25;;;;;;;20.63;9.43;;;;;;;;;;5052196;28;20212;-81
2023/04/27 08:39:51;;;;;;;17.47;9.47;;;;;;;;;;5053704;28;20056;-80
2023/04/27 08:42:20;;;;;;;14.80;8.77;;;;;;;;;;5053297;28;20013;-79
2023/04/27 08:44:49;;;;;;;16.90;9.03;;;;;;;;;;5052298;28;20022;-80
2023/04/27 08:47:15;;;;;;;19.50;8.73;;;;;;;;;;5054076;28;20056;-81
2023/04/27 08:49:41;;;;;;;18.43;10.90;;;;;;;;;;5053757;28;20088;-83
2023/04/27 08:52:14;;;;;;;16.23;8.27;;;;;;;;;;5051979;28;20029;-80
2023/04/27 08:54:40;;;;;;;17.13;9.40;;;;;;;;;;5051537;28;20022;-79
2023/04/27 08:57:13;;;;;;;17.83;8.30;;;;;;;;;;5051939;28;20061;-81
2023/04/27 08:59:39;;;;;;;;;;;;;;;;;;5054315;28;20086;-80
2023/04/27 09:02:05;;;;;;;18.00;7.53;;;;;;;;;;5051657;28;19913;-81
2023/04/27 09:04:39;;;;;;;16.70;8.33;;;;;;;;;;5047623;28;20037;-81
2023/04/27 09:07:15;;;;;;;19.77;8.10;;;;;;;;;;5050925;28;20105;-81
2023/04/27 09:09:42;;;;;;;23.83;7.80;;;;;;;;;;5043886;28;20017;-81
2023/04/27 09:12:16;;;;;;;16.50;8.87;;;;;;;;;;5046792;28;20033;-80
2023/04/27 09:14:42;;;;;;;18.97;8.00;;;;;;;;;;5048057;28;20052;-81
2023/04/27 09:17:08;;;;;;;16.83;8.43;;;;;;;;;;5049928;28;20038;-80
2023/04/27 09:19:34;;;;;;;16.27;8.43;;;;;;;;;;5050455;28;20041;-81
2023/04/27 09:22:04;;;;;;;19.70;9.10;;;;;;;;;;5049716;28;20083;-81
2023/04/27 09:24:30;;;;;;;17.77;9.33;;;;;;;;;;5051272;28;20025;-81
2023/04/27 09:26:56;;;;;;;14.27;8.60;;;;;;;;;;5051577;28;20028;-79
2023/04/27 09:29:32;;;;;;;23.03;9.93;;;;;;;;;;5053453;28;20028;-80
2023/04/27 09:31:58;;;;;;;14.73;8.23;;;;;;;;;;5051625;28;20025;-79
2023/04/27 09:34:24;;;;;;;14.73;8.10;;;;;;;;;;5052904;28;20063;-80
2023/04/27 09:36:50;;;;;;;19.53;10.00;;;;;;;;;;5052718;28;20037;-80
2023/04/27 09:39:18;;;;;;;12.83;7.37;;;;;;;;;;5050424;28;20033;-80
2023/04/27 09:41:48;;;;;;;17.80;9.13;;;;;;;;;;5053215;28;20029;-79
2023/04/27 09:44:14;;;;;;;17.20;8.43;;;;;;;;;;5053657;28;20089;-81
2023/04/27 09:46:42;;;;;;;18.17;9.40;;;;;;;;;;5049446;28;20124;-82
2023/04/27 09:49:08;;;;;;;20.73;8.60;;;;;;;;;;5050161;28;20026;-80
2023/04/27 09:51:35;;;;;;;14.93;8.80;;;;;;;;;;5046609;28;20108;-82
2023/04/27 09:54:02;;;;;;;19.00;8.93;;;;;;;;;;5050944;28;20037;-80
2023/04/27 09:56:47;;;;;;;12.90;7.97;;;;;;;;;;5051225;28;20029;-80
2023/04/27 09:59:16;;;;;;;18.43;10.10;;;;;;;;;;5052596;28;20089;-81
2023/04/27 10:01:45;;;;;;;14.80;8.30;;;;;;;;;;5054295;28;20064;-80
2023/04/27 10:04:20;;;;;;;13.60;7.97;;;;;;;;;;5053119;28;20029;-80
2023/04/27 10:06:58;;;;;;;17.40;9.37;;;;;;;;;;5053334;28;20461;-81
2023/04/27 10:09:25;;;;;;;18.47;8.33;;;;;;;;;;5048312;28;20083;-80
2023/04/27 10:11:52;;;;;;;16.43;8.30;;;;;;;;;;5050616;28;20160;-80
2023/04/27 10:14:20;;;;;;;14.97;8.17;;;;;;;;;;5048753;28;20065;-82
2023/04/27 10:16:51;;;;;;;17.53;9.27;;;;;;;;;;5051723;28;20067;-80
2023/04/27 10:19:19;;;;;;;16.10;9.37;;;;;;;;;;5053851;28;20029;-81
2023/04/27 10:22:07;;;;;;;17.13;9.73;;;;;;;;;;5052245;28;20103;-80
2023/04/27 10:24:40;;;;;;;14.07;7.73;;;;;;;;;;5051414;28;20061;-80
2023/04/27 10:27:07;;;;;;;17.23;8.17;;;;;;;;;;5052882;28;20040;-80
2023/04/27 10:29:43;;;;;;;24.23;13.53;;;;;;;;;;5048953;28;20079;-80
2023/04/27 10:32:13;;;;;;;14.10;8.70;;;;;;;;;;5051088;28;20040;-80
2023/04/27 10:34:40;;;;;;;13.60;8.10;;;;;;;;;;5054970;28;20008;-80
2023/04/27 10:37:09;;;;;;;15.13;9.27;;;;;;;;;;5052652;28;20052;-81
2023/04/27 10:39:38;;;;;;;18.87;9.73;;;;;;;;;;5050916;28;20055;-81
2023/04/27 10:42:04;;;;;;;13.03;8.57;;;;;;;;;;5050449;28;20431;-81
2023/04/27 10:44:31;;;;;;;15.17;8.40;;;;;;;;;;5051586;28;20033;-81
2023/04/27 10:46:58;;;;;;;16.03;9.03;;;;;;;;;;5051785;28;20025;-80
2023/04/27 10:49:26;;;;;;;22.80;8.90;;;;;;;;;;5051093;28;20081;-81
2023/04/27 10:51:52;;;;;;;15.80;8.70;;;;;;;;;;5052814;28;20021;-81
2023/04/27 10:54:18;;;;;;;19.13;9.13;;;;;;;;;;5048741;28;20029;-80
2023/04/27 10:56:45;;;;;;;19.40;9.10;;;;;;;;;;5052195;28;20347;-80
2023/04/27 10:59:13;;;;;;;12.90;8.30;;;;;;;;;;5049088;28;20033;-80
2023/04/27 11:01:39;;;;;;;17.93;8.60;;;;;;;;;;5050680;28;20060;-79
2023/04/27 11:04:06;;;;;;;13.97;8.67;;;;;;;;;;5052638;28;20041;-80
2023/04/27 11:06:35;;;;;;;13.83;7.90;;;;;;;;;;5047893;28;20021;-81
2023/04/27 11:09:01;;;;;;;14.47;9.17;;;;;;;;;;5048008;28;20192;-80
2023/04/27 11:11:27;;;;;;;20.27;8.90;;;;;;;;;;5046474;28;20025;-81
2023/04/27 11:13:57;;;;;;;18.30;9.53;;;;;;;;;;5047962;28;20029;-80
2023/04/27 11:16:23;;;;;;;21.70;9.27;;;;;;;;;;5051247;28;20029;-81
2023/04/27 11:18:49;;;;;;;18.17;10.03;;;;;;;;;;5047885;28;20064;-81
2023/04/27 11:21:16;;;;;;;17.20;9.47;;;;;;;;;;5046589;28;20025;-78
2023/04/27 11:23:42;;;;;;;19.17;10.10;;;;;;;;;;5028675;28;20037;-81
2023/04/27 11:26:14;;;;;;;16.93;9.37;;;;;;;;;;5046345;28;20060;-80
2023/04/27 11:28:40;;;;;;;14.55;9.10;;;;;;;;;;5043210;28;20025;-80
2023/04/27 11:31:07;;;;;;;16.63;8.97;;;;;;;;;;5045928;28;20029;-80
2023/04/27 11:33:33;;;;;;;15.50;9.27;;;;;;;;;;5049180;28;20056;-81
2023/04/27 11:35:59;;;;;;;20.90;9.00;;;;;;;;;;5050186;28;20017;-80
2023/04/27 11:38:26;;;;;;;18.27;9.87;;;;;;;;;;5049441;28;20021;-80
2023/04/27 11:40:59;;;;;;;14.57;8.60;;;;;;;;;;5047356;28;20109;-80
2023/04/27 11:43:26;;;;;;;16.50;8.70;;;;;;;;;;5047535;28;20031;-79
2023/04/27 11:45:52;;;;;;;19.47;9.93;;;;;;;;;;5046465;28;20097;-80
2023/04/27 11:48:19;;;;;;;18.67;9.43;;;;;;;;;;5044478;28;20022;-80
2023/04/27 11:50:52;;;;;;;16.10;9.93;;;;;;;;;;5047130;28;20017;-80
2023/04/27 11:53:28;;;;;;;17.10;8.57;;;;;;;;;;5046350;28;20025;-80
2023/04/27 11:55:58;;;;;;;17.60;9.10;;;;;;;;;;5043355;28;20030;-81
2023/04/27 11:58:25;;;;;;;18.47;9.93;;;;;;;;;;5044421;28;20068;-80
2023/04/27 12:00:51;;;;;;;19.40;10.33;;;;;;;;;;5045521;28;20029;-80
2023/04/27 12:03:17;;;;;;;18.13;9.80;;;;;;;;;;5046794;28;20026;-81
2023/04/27 12:05:50;;;;;;;17.37;10.03;;;;;;;;;;5045590;28;20037;-80
2023/04/27 12:08:16;;;;;;;15.83;9.20;;;;;;;;;;5044302;28;20067;-80
2023/04/27 12:10:43;;;;;;;21.27;9.27;;;;;;;;;;5045471;28;20025;-80
2023/04/27 12:13:09;;;;;;;14.97;9.00;;;;;;;;;;5045687;28;20030;-80
2023/04/27 12:15:35;;;;;;;16.83;8.43;;;;;;;;;;5042316;28;21724;-81
2023/04/27 12:18:01;;;;;;;12.93;8.50;;;;;;;;;;5042133;28;20053;-80
2023/04/27 12:20:27;;;;;;;18.13;8.67;;;;;;;;;;5041664;28;20359;-80
2023/04/27 12:22:54;;;;;;;17.53;8.57;;;;;;;;;;5043536;28;20033;-80
2023/04/27 12:25:20;;;;;;;17.43;8.07;;;;;;;;;;5043488;28;20037;-80
2023/04/27 12:27:47;;;;;;;15.17;7.67;;;;;;;;;;5043427;28;20022;-80
2023/04/27 12:30:13;;;;;;;18.77;9.53;;;;;;;;;;5045551;28;20024;-80
2023/04/27 12:32:40;;;;;;;15.53;9.23;;;;;;;;;;5043983;28;20057;-79
2023/04/27 12:35:07;;;;;;;22.57;10.10;;;;;;;;;;5045705;28;20060;-81
2023/04/27 12:37:33;;;;;;;16.97;9.17;;;;;;;;;;5041040;28;20037;-80
2023/04/27 12:40:00;;;;;;;18.17;9.30;;;;;;;;;;5044500;28;20033;-80
2023/04/27 12:42:26;;;;;;;15.67;9.00;;;;;;;;;;5048898;28;20035;-80
2023/04/27 12:44:52;;;;;;;14.40;8.93;;;;;;;;;;5043050;28;20056;-79
2023/04/27 12:47:21;;;;;;;14.67;8.00;;;;;;;;;;5044470;28;20029;-81
2023/04/27 12:49:47;;;;;;;17.13;8.70;;;;;;;;;;5043468;28;20025;-79
2023/04/27 12:52:13;;;;;;;13.23;8.63;;;;;;;;;;5048857;28;20029;-80
2023/04/27 12:54:41;;;;;;;17.93;8.50;;;;;;;;;;5049849;28;20052;-80
2023/04/27 12:57:08;;;;;;;13.87;8.20;;;;;;;;;;5050950;28;20037;-80
2023/04/27 12:59:34;;;;;;;19.00;8.90;;;;;;;;;;5050264;28;20112;-81
2023/04/27 13:02:03;;;;;;;17.37;8.40;;;;;;;;;;5033502;28;20060;-80
2023/04/27 13:04:30;;;;;;;15.00;9.10;;;;;;;;;;5049712;28;20034;-80
2023/04/27 13:06:59;;;;;;;16.63;8.63;;;;;;;;;;5051375;28;20481;-81
2023/04/27 13:09:26;;;;;;;17.48;9.15;;;;;;;;;;5051718;28;20674;-81
2023/04/27 13:11:53;;;;;;;15.48;8.45;;;;;;;;;;5056926;28;20029;-82
2023/04/27 13:14:19;;;;;;;17.08;8.23;;;;;;;;;;5049863;28;20041;-80
2023/04/27 13:16:46;;;;;;;15.00;7.47;;;;;;;;;;5043192;28;20040;-79
2023/04/27 13:19:12;;;;;;;13.45;8.07;;;;;;;;;;5043790;28;20029;-80
2023/04/27 13:21:38;;;;;;;18.45;8.73;;;;;;;;;;5047247;28;20048;-79
2023/04/27 13:24:05;;;;;;;14.43;8.55;;;;;;;;;;5041179;28;20076;-81
2023/04/27 13:26:31;;;;;;;18.15;9.52;;;;;;;;;;5044800;28;20047;-80
2023/04/27 13:29:02;;;;;;;14.10;7.32;;;;;;;;;;5044967;28;20021;-80
2023/04/27 13:31:28;;;;;;;14.02;8.43;;;;;;;;;;5043910;28;20037;-81
2023/04/27 13:33:54;;;;;;;18.00;9.27;;;;;;;;;;5046216;28;20025;-81
2023/04/27 13:36:21;;;;;;;14.70;8.50;;;;;;;;;;5042724;28;20428;-80
2023/04/27 13:38:47;;;;;;;14.00;7.97;;;;;;;;;;5042987;28;20037;-81
2023/04/27 13:41:13;;;;;;;15.63;9.23;;;;;;;;;;5045144;28;20025;-80
2023/04/27 13:43:39;;;;;;;15.02;9.25;;;;;;;;;;5040592;28;20025;-80
2023/04/27 13:46:06;;;;;;;16.13;8.90;;;;;;;;;;5044400;28;20101;-80
2023/04/27 13:48:34;;;;;;;18.00;8.00;;;;;;;;;;5043085;28;20026;-80
2023/04/27 13:51:00;;;;;;;17.48;8.35;;;;;;;;;;5039803;28;20029;-80
2023/04/27 13:53:26;;;;;;;16.67;9.20;;;;;;;;;;5042801;28;20022;-80
2023/04/27 13:55:53;;;;;;;18.00;9.37;;;;;;;;;;5044738;28;20026;-80
2023/04/27 13:58:19;;;;;;;15.05;10.07;;;;;;;;;;5052465;28;20013;-81
2023/04/27 14:00:50;;;;;;;13.23;8.80;;;;;;;;;;5053363;28;20032;-80
2023/04/27 14:03:16;;;;;;;15.02;8.85;;;;;;;;;;5053420;28;20033;-81
2023/04/27 14:05:43;;;;;;;16.52;9.57;;;;;;;;;;5053064;28;20029;-80
2023/04/27 14:08:09;;;;;;;19.17;9.38;;;;;;;;;;5033777;28;20052;-81
2023/04/27 14:10:38;;;;;;;18.92;9.80;;;;;;;;;;5052860;28;20025;-79
2023/04/27 14:13:05;;;;;;;13.05;7.72;;;;;;;;;;5049403;28;20032;-81
2023/04/27 14:15:35;;;;;;;18.13;9.57;;;;;;;;;;5048830;28;20495;-81
2023/04/27 14:18:02;;;;;;;17.38;9.10;;;;;;;;;;5050903;28;20021;-80
2023/04/27 14:20:28;;;;;;;15.27;8.25;;;;;;;;;;5052769;28;20021;-80
2023/04/27 14:22:54;;;;;;;14.32;9.27;;;;;;;;;;5052396;28;20053;-80
2023/04/27 14:25:20;;;;;;;15.00;7.97;;;;;;;;;;5051825;28;20029;-80
2023/04/27 14:27:46;;;;;;;17.65;9.13;;;;;;;;;;5052466;28;20284;-81
2023/04/27 14:30:12;;;;;;;17.45;8.43;;;;;;;;;;5051106;28;20085;-81
2023/04/27 14:32:38;;;;;;;14.65;8.52;;;;;;;;;;5051811;28;20089;-80
2023/04/27 14:35:05;;;;;;;14.02;8.32;;;;;;;;;;5053951;28;20040;-81
2023/04/27 14:37:31;;;;;;;14.55;8.50;;;;;;;;;;5052200;28;20029;-77
2023/04/27 14:39:57;;;;;;;15.35;7.90;;;;;;;;;;5044756;28;20060;-78
2023/04/27 14:42:23;;;;;;;13.68;8.13;;;;;;;;;;5049043;28;20032;-78
2023/04/27 14:44:49;;;;;;;14.18;8.43;;;;;;;;;;5051259;28;20037;-79
2023/04/27 14:47:15;;;;;;;17.17;8.63;;;;;;;;;;5056495;28;20051;-82
2023/04/27 14:49:41;;;;;;;13.32;8.18;;;;;;;;;;5053748;28;20112;-82
2023/04/27 14:52:07;;;;;;;13.65;8.60;;;;;;;;;;5056171;28;20055;-79
2023/04/27 14:54:34;;;;;;;12.73;7.20;;;;;;;;;;5058638;28;20026;-81
2023/04/27 14:57:00;;;;;;;19.00;6.82;;;;;;;;;;5053279;28;20028;-80
2023/04/27 14:59:27;;;;;;;15.25;6.78;;;;;;;;;;5050822;28;20040;-79
2023/04/27 15:01:53;;;;;;;11.88;7.18;;;;;;;;;;5055783;28;20059;-81
2023/04/27 15:04:19;;;;;;;13.50;7.32;;;;;;;;;;5053942;28;20037;-79
2023/04/27 15:06:45;;;;;;;14.70;7.10;;;;;;;;;;5050202;28;20033;-80
2023/04/27 15:09:12;;;;;;;13.93;7.85;;;;;;;;;;5049488;28;20016;-81
2023/04/27 15:11:40;;;;;;;11.90;7.40;;;;;;;;;;5050121;28;20017;-81
2023/04/27 15:14:07;;;;;;;16.92;7.55;;;;;;;;;;5052128;28;20037;-81
2023/04/27 15:16:33;;;;;;;16.20;8.25;;;;;;;;;;5054784;28;20112;-81
2023/04/27 15:18:59;;;;;;;12.50;7.00;;;;;;;;;;5051540;28;20048;-81
2023/04/27 15:21:25;;;;;;;11.77;7.15;;;;;;;;;;5049017;28;20043;-81
2023/04/27 15:23:51;;;;;;;13.60;7.80;;;;;;;;;;5049001;28;20025;-80
2023/04/27 15:26:17;;;;;;;14.60;6.40;;;;;;;;;;5053691;28;20040;-80